Time;durP1;ratioP1;P1;durP2;ratioP2;P2;SDS_P1;SDS_P2;PMS_P1;PMS_P2;Temp;Humidity;BMP_temperature;BMP_pressure;BME280_temperature;BME280_humidity;BME280_pressure;Samples;Min_cycle;Max_cycle;Signal;HPM_P1;HPM_P2
2023/12/01 00:03:05;;;;;;;197.50;100.00;;;;;;;-0.16;80.35;97399.23;226351;1276;22538;-74
2023/12/01 00:08:08;;;;;;;198.80;106.00;;;;;;;-0.17;80.39;97400.23;226376;1275;22638;-74
2023/12/01 00:13:10;;;;;;;196.60;105.20;;;;;;;-0.19;80.50;97404.54;226198;1276;22611;-75
2023/12/01 00:18:13;;;;;;;215.90;110.80;;;;;;;-0.20;80.25;97398.78;226156;1270;22566;-73
2023/12/01 00:23:15;;;;;;;205.30;109.60;;;;;;;-0.22;80.46;97407.98;226339;1273;24314;-74
2023/12/01 00:28:24;;;;;;;227.40;117.10;;;;;;;-0.29;80.15;97402.69;226312;1276;22553;-73
2023/12/01 00:33:26;;;;;;;225.10;121.20;;;;;;;-0.36;80.55;97397.95;226230;1275;22810;-73
2023/12/01 00:38:28;;;;;;;238.20;122.40;;;;;;;-0.45;80.39;97394.95;226395;1275;22546;-74
2023/12/01 00:43:31;;;;;;;248.90;130.60;;;;;;;-0.54;80.44;97397.86;226187;1276;23085;-73
2023/12/01 00:48:33;;;;;;;242.60;125.20;;;;;;;-0.62;80.53;97399.60;226289;1276;23177;-73
2023/12/01 00:53:35;;;;;;;218.00;114.80;;;;;;;-0.72;80.50;97421.27;226275;1273;25182;-72
2023/12/01 00:58:38;;;;;;;226.80;115.40;;;;;;;-0.76;80.61;97441.06;226200;1276;22615;-73
2023/12/01 01:03:41;;;;;;;215.00;113.00;;;;;;;-0.79;81.11;97438.56;226323;1273;22553;-72
2023/12/01 01:08:43;;;;;;;228.80;119.10;;;;;;;-0.82;81.01;97430.56;226243;1273;22540;-72
2023/12/01 01:13:48;;;;;;;224.50;112.80;;;;;;;-0.83;81.36;97414.45;226298;1272;25588;-73
2023/12/01 01:18:51;;;;;;;220.60;116.30;;;;;;;-0.87;81.17;97431.04;226260;1276;22554;-71
2023/12/01 01:23:53;;;;;;;195.50;104.50;;;;;;;-0.93;81.49;97426.27;226335;1270;22568;-72
2023/12/01 01:28:55;;;;;;;193.60;100.50;;;;;;;-0.97;81.61;97441.23;226292;1275;22613;-73
2023/12/01 01:33:57;;;;;;;208.20;107.60;;;;;;;-1.03;81.18;97450.57;226330;1273;22692;-74
2023/12/01 01:38:59;;;;;;;210.00;110.20;;;;;;;-1.06;81.75;97427.69;226307;1254;22683;-73
2023/12/01 01:44:02;;;;;;;210.80;107.90;;;;;;;-1.09;81.74;97443.86;226348;1275;22560;-73
2023/12/01 01:49:05;;;;;;;173.20;96.20;;;;;;;-1.11;81.94;97431.68;226360;1273;22855;-73
2023/12/01 01:54:09;;;;;;;206.00;111.80;;;;;;;-1.15;81.80;97429.41;226289;1275;22642;-74
2023/12/01 01:59:12;;;;;;;213.20;114.60;;;;;;;-1.20;81.85;97438.20;226308;1271;23034;-75
2023/12/01 02:04:15;;;;;;;216.50;120.00;;;;;;;-1.24;81.76;97460.08;226279;1273;22551;-75
2023/12/01 02:09:17;;;;;;;222.60;123.50;;;;;;;-1.25;82.14;97476.02;226305;1273;22853;-76
2023/12/01 02:14:21;;;;;;;223.60;121.10;;;;;;;-1.24;82.24;97484.20;226267;1267;22551;-74
2023/12/01 02:19:24;;;;;;;222.00;121.80;;;;;;;-1.20;82.74;97465.35;226257;1275;22567;-74
2023/12/01 02:24:27;;;;;;;196.20;111.10;;;;;;;-1.17;82.48;97443.27;226284;1273;23343;-73
2023/12/01 02:29:29;;;;;;;210.80;116.80;;;;;;;-1.18;82.41;97446.14;226352;1273;22544;-75
2023/12/01 02:34:32;;;;;;;219.40;115.30;;;;;;;-1.16;82.55;97437.87;226272;1273;22534;-74
2023/12/01 02:39:36;;;;;;;212.30;113.70;;;;;;;-1.17;82.18;97453.64;226298;1271;22561;-74
2023/12/01 02:44:39;;;;;;;216.00;119.90;;;;;;;-1.17;82.35;97441.95;226374;1273;22663;-75
2023/12/01 02:49:41;;;;;;;212.80;118.50;;;;;;;-1.14;82.89;97440.23;226280;1273;22817;-74
2023/12/01 02:54:43;;;;;;;211.50;119.20;;;;;;;-1.12;82.60;97454.38;226309;1273;22590;-74
2023/12/01 02:59:45;;;;;;;216.30;116.70;;;;;;;-1.10;82.65;97449.73;226328;1273;22719;-76
2023/12/01 03:04:48;;;;;;;209.40;110.20;;;;;;;-1.09;82.79;97454.58;226335;1275;22543;-75
2023/12/01 03:09:50;;;;;;;194.60;106.00;;;;;;;-1.11;82.49;97466.70;226336;1273;22621;-74
2023/12/01 03:14:52;;;;;;;192.10;105.30;;;;;;;-1.11;82.54;97473.86;226247;1272;22566;-74
2023/12/01 03:20:10;;;;;;;210.30;110.30;;;;;;;-1.13;82.65;97475.71;226370;1275;22555;-74
2023/12/01 03:25:13;;;;;;;219.60;116.30;;;;;;;-1.11;82.64;97458.77;226359;1273;23137;-74
2023/12/01 03:30:18;;;;;;;187.90;105.50;;;;;;;-1.07;82.66;97457.22;226308;1273;25389;-75
2023/12/01 03:35:24;;;;;;;201.20;106.80;;;;;;;-1.06;82.14;97454.54;226391;1271;22770;-74
2023/12/01 03:40:27;;;;;;;215.80;114.20;;;;;;;-1.07;82.38;97463.80;226229;1275;23314;-74
2023/12/01 03:45:30;;;;;;;202.90;109.50;;;;;;;-1.05;82.74;97439.39;226277;1275;22488;-74
2023/12/01 03:50:32;;;;;;;202.20;113.20;;;;;;;-1.02;82.60;97438.39;226458;1272;22783;-74
2023/12/01 03:55:35;;;;;;;212.50;113.60;;;;;;;-1.00;82.73;97439.77;226307;1275;22610;-75
2023/12/01 04:00:37;;;;;;;223.20;116.90;;;;;;;-0.97;82.35;97442.62;226275;1273;22548;-76
2023/12/01 04:05:40;;;;;;;214.40;115.50;;;;;;;-0.96;82.77;97443.99;226371;1275;22591;-75
2023/12/01 04:10:43;;;;;;;201.40;110.60;;;;;;;-0.93;82.65;97427.17;226286;1269;22573;-75
2023/12/01 04:15:45;;;;;;;210.40;113.10;;;;;;;-0.91;82.64;97412.82;226296;1259;22603;-75
2023/12/01 04:20:48;;;;;;;225.10;119.10;;;;;;;-0.89;82.59;97415.55;226093;1275;22539;-74
2023/12/01 04:25:50;;;;;;;207.90;112.00;;;;;;;-0.86;82.56;97423.75;226341;1275;22550;-75
2023/12/01 04:30:52;;;;;;;215.10;116.70;;;;;;;-0.86;82.89;97440.60;226294;1273;22560;-74
2023/12/01 04:35:56;;;;;;;220.30;117.90;;;;;;;-0.85;82.56;97436.38;226298;1273;22575;-74
2023/12/01 04:40:58;;;;;;;211.50;118.50;;;;;;;-0.85;82.76;97432.88;226360;1275;22565;-73
2023/12/01 04:46:01;;;;;;;230.50;123.50;;;;;;;-0.84;82.79;97417.75;226350;1273;22911;-75
2023/12/01 04:51:03;;;;;;;235.60;121.00;;;;;;;-0.83;82.63;97416.68;226379;1271;22626;-75
2023/12/01 04:56:07;;;;;;;233.60;124.90;;;;;;;-0.84;82.78;97427.77;226342;1275;22541;-74
2023/12/01 05:01:09;;;;;;;226.50;124.10;;;;;;;-0.83;82.99;97442.42;226339;1270;22531;-74
2023/12/01 05:06:11;;;;;;;235.30;124.10;;;;;;;-0.82;82.76;97430.19;226261;1275;22605;-74
2023/12/01 05:11:14;;;;;;;241.60;126.50;;;;;;;-0.84;82.86;97456.80;226322;1275;24228;-74
2023/12/01 05:16:17;;;;;;;219.20;120.20;;;;;;;-0.83;83.08;97458.47;226308;1272;22549;-74
2023/12/01 05:21:19;;;;;;;222.60;121.50;;;;;;;-0.84;83.05;97448.86;226325;1273;22576;-74
2023/12/01 05:26:22;;;;;;;227.70;124.70;;;;;;;-0.86;82.82;97449.77;226343;1275;22550;-74
2023/12/01 05:31:24;;;;;;;223.30;121.60;;;;;;;-0.84;82.90;97457.73;226423;1269;22888;-75
2023/12/01 05:36:26;;;;;;;242.90;130.00;;;;;;;-0.86;82.95;97452.75;226475;1272;22534;-74
2023/12/01 05:41:28;;;;;;;234.40;127.30;;;;;;;-0.90;83.09;97464.21;226353;1269;22629;-74
2023/12/01 05:46:30;;;;;;;212.20;117.70;;;;;;;-0.90;82.97;97466.13;226291;1269;25524;-75
2023/12/01 05:51:33;;;;;;;225.10;123.50;;;;;;;-0.91;82.95;97460.84;226449;1272;22544;-75
2023/12/01 05:56:36;;;;;;;218.20;119.70;;;;;;;-0.91;83.21;97441.84;226341;1275;23501;-74
2023/12/01 06:01:38;;;;;;;217.20;122.50;;;;;;;-0.92;83.07;97456.06;226244;1265;22563;-76
2023/12/01 06:06:40;;;;;;;211.30;119.00;;;;;;;-0.95;83.30;97458.30;226405;1272;22699;-75
2023/12/01 06:11:44;;;;;;;219.00;120.40;;;;;;;-0.98;83.13;97464.96;226236;1275;22598;-75
2023/12/01 06:16:46;;;;;;;224.40;122.80;;;;;;;-1.00;83.39;97454.94;226217;1272;22536;-76
2023/12/01 06:21:48;;;;;;;223.00;123.60;;;;;;;-1.01;83.22;97461.77;226389;1272;23260;-75
2023/12/01 06:26:52;;;;;;;224.50;125.20;;;;;;;-1.03;83.55;97488.93;226275;1269;23775;-75
2023/12/01 06:31:55;;;;;;;210.40;121.30;;;;;;;-1.04;83.15;97471.15;226417;1272;22605;-77
2023/12/01 06:36:59;;;;;;;225.60;125.70;;;;;;;-1.05;83.27;97466.38;226341;1275;22623;-76
2023/12/01 06:42:01;;;;;;;220.90;130.90;;;;;;;-1.09;82.97;97478.06;226350;1253;22738;-75
2023/12/01 06:47:04;;;;;;;222.30;129.70;;;;;;;-1.12;83.28;97489.08;226192;1272;22557;-73
2023/12/01 06:52:08;;;;;;;218.80;126.70;;;;;;;-1.14;83.19;97491.40;225972;1251;22915;-74
2023/12/01 06:57:10;;;;;;;216.70;123.30;;;;;;;-1.11;83.72;97486.20;226199;1256;22747;-74
2023/12/01 07:02:17;;;;;;;234.80;128.20;;;;;;;-1.01;83.72;97501.39;225820;1269;25482;-72
2023/12/01 07:07:19;;;;;;;226.80;126.60;;;;;;;-0.88;83.60;97510.85;226170;1262;22540;-75
2023/12/01 07:12:22;;;;;;;232.10;126.70;;;;;;;-0.74;83.79;97518.60;225666;1255;22550;-75
2023/12/01 07:17:24;;;;;;;235.10;129.30;;;;;;;-0.61;83.67;97541.60;225604;1253;24891;-75
2023/12/01 07:22:27;;;;;;;245.80;132.60;;;;;;;-0.54;83.29;97534.62;225901;1267;22544;-74
2023/12/01 07:27:29;;;;;;;240.20;132.60;;;;;;;-0.48;83.38;97541.82;225951;1267;22577;-75
2023/12/01 07:32:32;;;;;;;223.80;123.50;;;;;;;-0.41;83.08;97530.71;225846;1263;22552;-73
2023/12/01 07:37:34;;;;;;;217.40;123.20;;;;;;;-0.30;82.98;97516.77;225955;1253;22552;-74
2023/12/01 07:42:37;;;;;;;214.30;123.80;;;;;;;-0.20;82.91;97526.27;226030;1253;22553;-76
2023/12/01 07:47:40;;;;;;;190.90;112.80;;;;;;;-0.12;82.65;97536.38;225812;1269;22568;-76
2023/12/01 07:52:43;;;;;;;187.20;105.20;;;;;;;-0.01;82.80;97546.55;225782;1273;22565;-75
2023/12/01 07:57:46;;;;;;;173.00;99.40;;;;;;;0.13;82.77;97550.66;225879;1269;25348;-76
2023/12/01 08:02:54;;;;;;;175.90;99.60;;;;;;;0.23;82.76;97536.44;225867;1272;22601;-75
2023/12/01 08:07:57;;;;;;;163.30;95.60;;;;;;;0.33;82.68;97532.33;225985;1253;22613;-74
2023/12/01 08:13:21;;;;;;;165.70;92.40;;;;;;;0.53;82.94;97530.55;225571;1262;22560;-73
2023/12/01 08:18:23;;;;;;;182.00;93.20;;;;;;;0.69;82.69;97538.60;225904;1273;22549;-72
2023/12/01 08:23:25;;;;;;;189.70;94.40;;;;;;;0.82;82.45;97543.08;225965;1273;22558;-74
2023/12/01 08:28:28;;;;;;;173.50;89.30;;;;;;;0.98;82.40;97553.72;225985;1276;22536;-74
2023/12/01 08:33:31;;;;;;;168.10;93.60;;;;;;;1.16;82.17;97568.44;225999;1276;24257;-74
2023/12/01 08:38:33;;;;;;;186.20;100.80;;;;;;;1.28;81.73;97563.52;225910;1275;24769;-75
2023/12/01 08:43:40;;;;;;;181.70;99.40;;;;;;;1.37;81.44;97561.59;225988;1275;22564;-73
2023/12/01 08:48:43;;;;;;;190.80;105.20;;;;;;;1.46;81.21;97567.85;226111;1269;25284;-73
2023/12/01 08:53:46;;;;;;;185.90;104.50;;;;;;;1.63;81.30;97565.68;225951;1268;22539;-74
2023/12/01 08:58:49;;;;;;;206.00;113.80;;;;;;;1.75;80.80;97564.71;225938;1269;24241;-76
2023/12/01 09:03:51;;;;;;;208.30;114.10;;;;;;;1.87;80.79;97566.96;226023;1256;22545;-75
2023/12/01 09:08:54;;;;;;;193.30;111.80;;;;;;;1.93;80.30;97568.59;225821;1268;22569;-76
2023/12/01 09:13:58;;;;;;;184.40;103.80;;;;;;;2.00;80.14;97570.90;225833;1273;22548;-77
2023/12/01 09:19:02;;;;;;;178.90;100.00;;;;;;;2.13;80.31;97574.04;225599;1272;22532;-76
2023/12/01 09:24:08;;;;;;;169.10;95.10;;;;;;;2.30;79.99;97583.10;226016;1264;22545;-76
2023/12/01 09:29:10;;;;;;;160.30;92.50;;;;;;;2.40;79.65;97590.32;225990;1273;22545;-75
2023/12/01 09:34:13;;;;;;;158.00;90.30;;;;;;;2.43;79.35;97591.27;225977;1253;22562;-74
2023/12/01 09:39:15;;;;;;;163.90;94.10;;;;;;;2.41;79.01;97583.98;225772;1275;22560;-73
2023/12/01 09:44:17;;;;;;;166.50;95.90;;;;;;;2.43;79.13;97593.54;226021;1275;22585;-74
2023/12/01 09:49:23;;;;;;;169.30;96.40;;;;;;;2.53;79.14;97581.65;225865;1273;22553;-73
2023/12/01 09:54:26;;;;;;;174.70;101.40;;;;;;;2.55;78.56;97566.40;227179;1272;22622;-74
2023/12/01 09:59:28;;;;;;;197.90;106.30;;;;;;;2.52;78.50;97555.37;225792;1272;22660;-72
2023/12/01 10:04:35;;;;;;;190.60;108.80;;;;;;;2.56;78.68;97546.71;225886;1272;22531;-72
2023/12/01 10:09:38;;;;;;;188.20;106.40;;;;;;;2.69;78.75;97541.55;225764;1276;22563;-72
2023/12/01 10:14:43;;;;;;;180.40;103.50;;;;;;;2.77;78.50;97554.02;225839;1273;22577;-74
2023/12/01 10:19:47;;;;;;;178.20;102.90;;;;;;;2.85;78.33;97572.59;225846;1266;22543;-75
2023/12/01 10:24:57;;;;;;;174.70;101.70;;;;;;;2.91;77.97;97574.77;225978;1273;25435;-75
2023/12/01 10:30:16;;;;;;;171.10;99.80;;;;;;;3.02;78.03;97573.96;226138;1264;22691;-75
2023/12/01 10:35:18;;;;;;;181.40;105.30;;;;;;;3.12;77.83;97560.98;226097;1269;22716;-74
2023/12/01 10:40:20;;;;;;;181.00;104.10;;;;;;;3.17;77.73;97540.67;226214;1271;22636;-72
2023/12/01 10:45:23;;;;;;;180.90;105.50;;;;;;;3.23;77.68;97538.47;226188;1262;22558;-72
2023/12/01 10:50:25;;;;;;;184.20;105.90;;;;;;;3.27;77.75;97548.42;226313;1262;25413;-75
2023/12/01 10:55:28;;;;;;;186.10;106.20;;;;;;;3.31;77.37;97554.74;226189;1272;22956;-74
2023/12/01 11:00:30;;;;;;;174.70;100.30;;;;;;;3.31;77.21;97563.42;226145;1270;22536;-74
2023/12/01 11:05:35;;;;;;;179.20;105.40;;;;;;;3.39;77.30;97572.23;226201;1268;22706;-75
2023/12/01 11:11:00;;;;;;;161.50;95.60;;;;;;;3.55;77.42;97562.75;225805;1273;22538;-74
2023/12/01 11:16:07;;;;;;;163.50;96.40;;;;;;;3.68;77.18;97566.89;225750;1266;22721;-75
2023/12/01 11:21:10;;;;;;;150.10;89.10;;;;;;;3.80;77.11;97548.64;225703;1269;183502;-75
2023/12/01 11:26:12;;;;;;;139.10;84.00;;;;;;;3.81;76.61;97547.65;226075;1271;22543;-76
2023/12/01 11:36:31;;;;;;;122.80;72.30;;;;;;;3.82;76.77;97554.08;226224;1256;22536;-75
2023/12/01 11:41:34;;;;;;;106.80;61.50;;;;;;;3.90;76.70;97554.35;226686;1256;22541;-76
2023/12/01 11:46:40;;;;;;;93.00;54.90;;;;;;;3.95;76.18;97552.63;225969;1256;22537;-76
2023/12/01 11:51:45;;;;;;;88.70;52.90;;;;;;;3.89;75.52;97549.31;226095;1272;22535;-75
2023/12/01 11:56:51;;;;;;;87.00;49.60;;;;;;;3.91;75.69;97559.55;225928;1273;22550;-75
2023/12/01 12:01:56;;;;;;;73.90;44.50;;;;;;;3.88;75.60;97555.55;226094;1272;22559;-75
2023/12/01 12:07:01;;;;;;;61.70;37.40;;;;;;;3.79;75.25;97552.77;225973;1276;22544;-75
2023/12/01 12:12:05;;;;;;;59.40;36.80;;;;;;;3.71;75.13;97567.09;226251;1255;22562;-75
2023/12/01 12:17:08;;;;;;;61.00;36.20;;;;;;;3.69;75.53;97578.08;226203;1272;22545;-75
2023/12/01 12:22:13;;;;;;;60.90;36.30;;;;;;;3.71;75.60;97590.36;226091;1255;25294;-76
2023/12/01 12:27:15;;;;;;;56.30;33.40;;;;;;;3.72;75.74;97588.48;225942;1273;22551;-74
2023/12/01 12:32:18;;;;;;;47.20;29.10;;;;;;;3.67;75.64;97603.95;226023;1274;23135;-74
2023/12/01 12:37:22;;;;;;;41.90;28.40;;;;;;;3.68;75.82;97588.17;225979;1275;27300;-74
2023/12/01 12:42:24;;;;;;;42.60;27.40;;;;;;;3.66;75.95;97582.96;225931;1269;22554;-76
2023/12/01 12:47:29;;;;;;;44.40;27.80;;;;;;;3.61;76.08;97580.41;225961;1256;22573;-74
2023/12/01 12:52:31;;;;;;;43.00;27.10;;;;;;;3.50;75.96;97580.39;225869;1272;24383;-75
2023/12/01 12:57:33;;;;;;;44.20;28.20;;;;;;;3.39;76.14;97580.75;225928;1272;24413;-74
2023/12/01 13:02:43;;;;;;;42.00;27.10;;;;;;;3.24;76.11;97575.05;225973;1272;23011;-75
2023/12/01 13:07:45;;;;;;;43.30;28.10;;;;;;;3.09;76.14;97552.16;225789;1272;22536;-75
2023/12/01 13:12:47;;;;;;;47.00;28.10;;;;;;;2.95;76.33;97532.31;225852;1275;25298;-75
2023/12/01 13:17:50;;;;;;;49.20;29.40;;;;;;;2.89;76.65;97525.89;226019;1261;23230;-74
2023/12/01 13:22:53;;;;;;;47.40;28.70;;;;;;;2.80;76.76;97529.61;225980;1272;25368;-75
2023/12/01 13:27:55;;;;;;;43.20;26.90;;;;;;;2.71;76.86;97527.02;225564;1275;22606;-75
2023/12/01 13:32:58;;;;;;;39.70;26.30;;;;;;;2.56;76.78;97545.17;225768;1268;22916;-75
2023/12/01 13:38:02;;;;;;;44.30;27.80;;;;;;;2.51;77.02;97547.02;225831;1275;22585;-75
2023/12/01 13:43:06;;;;;;;48.80;28.60;;;;;;;2.49;77.13;97552.45;226069;1270;22539;-74
2023/12/01 13:48:09;;;;;;;54.80;32.80;;;;;;;2.47;77.48;97566.70;226122;1256;22617;-74
2023/12/01 13:53:11;;;;;;;70.40;43.70;;;;;;;2.47;77.74;97566.89;225896;1276;22667;-73
2023/12/01 13:58:13;;;;;;;72.00;44.40;;;;;;;2.42;77.65;97577.60;226052;1272;22472;-75
2023/12/01 14:03:18;;;;;;;77.40;46.40;;;;;;;2.32;77.75;97581.64;225897;1270;24306;-73
2023/12/01 14:08:30;;;;;;;87.70;51.80;;;;;;;2.25;78.12;97591.13;226001;1269;23977;-72
2023/12/01 14:13:32;;;;;;;86.90;52.90;;;;;;;2.15;77.99;97593.32;226200;1275;22559;-74
2023/12/01 14:18:34;;;;;;;83.70;53.00;;;;;;;2.04;78.37;97605.77;226136;1275;22651;-74
2023/12/01 14:23:36;;;;;;;93.50;55.40;;;;;;;1.93;78.44;97619.48;225941;1272;22952;-76
2023/12/01 14:28:39;;;;;;;94.10;56.60;;;;;;;1.82;78.66;97613.14;225901;1260;22548;-76
2023/12/01 14:33:41;;;;;;;103.20;58.40;;;;;;;1.73;78.79;97627.23;226048;1268;22649;-76
2023/12/01 14:38:53;;;;;;;95.90;54.90;;;;;;;1.71;79.31;97631.23;226340;1272;22560;-76
2023/12/01 14:43:56;;;;;;;89.90;52.80;;;;;;;1.70;79.44;97620.45;226087;1269;22577;-77
2023/12/01 14:48:59;;;;;;;96.10;53.70;;;;;;;1.64;79.40;97594.38;226077;1272;24262;-75
2023/12/01 14:54:02;;;;;;;75.10;40.80;;;;;;;1.62;79.71;97581.41;226186;1254;23056;-76
2023/12/01 14:59:05;;;;;;;72.10;40.30;;;;;;;1.56;79.71;97596.26;226039;1270;24435;-76
2023/12/01 15:04:07;;;;;;;64.60;37.40;;;;;;;1.42;79.51;97611.29;226063;1269;22923;-73
2023/12/01 15:09:10;;;;;;;63.60;36.20;;;;;;;1.35;80.08;97582.66;225948;1269;22552;-73
2023/12/01 15:14:12;;;;;;;58.10;31.50;;;;;;;1.33;80.21;97579.42;225964;1272;22550;-73
2023/12/01 15:19:14;;;;;;;61.30;35.40;;;;;;;1.21;79.99;97581.75;226138;1275;22559;-74
2023/12/01 15:24:17;;;;;;;58.80;35.00;;;;;;;1.14;80.25;97592.69;225979;1275;25303;-72
2023/12/01 15:29:20;;;;;;;61.50;34.70;;;;;;;1.07;80.39;97606.27;226328;1273;22540;-73
2023/12/01 15:34:22;;;;;;;45.00;25.90;;;;;;;0.96;80.49;97599.88;226189;1275;22549;-72
2023/12/01 15:39:24;;;;;;;57.90;33.90;;;;;;;0.91;80.83;97610.55;226376;1275;22544;-73
2023/12/01 15:44:27;;;;;;;59.50;36.50;;;;;;;0.86;81.29;97607.02;226165;1275;22552;-73
2023/12/01 15:49:30;;;;;;;52.90;33.40;;;;;;;0.87;81.55;97611.41;226419;1275;22551;-73
2023/12/01 15:54:33;;;;;;;51.20;32.00;;;;;;;0.85;81.60;97618.68;226341;1272;24307;-73
2023/12/01 15:59:35;;;;;;;59.90;36.30;;;;;;;0.80;81.58;97620.44;226137;1276;22535;-73
2023/12/01 16:04:37;;;;;;;59.60;35.90;;;;;;;0.77;81.86;97617.09;226319;1275;22585;-74
2023/12/01 16:09:39;;;;;;;58.50;35.00;;;;;;;0.72;82.01;97627.20;226183;1275;22561;-75
2023/12/01 16:14:42;;;;;;;62.20;37.60;;;;;;;0.65;81.85;97632.48;226155;1275;22543;-72
2023/12/01 16:19:44;;;;;;;63.70;40.70;;;;;;;0.66;82.26;97634.50;226326;1273;22573;-72
2023/12/01 16:24:48;;;;;;;65.40;40.30;;;;;;;0.68;82.27;97640.06;226190;1276;22561;-73
2023/12/01 16:29:51;;;;;;;65.40;39.10;;;;;;;0.63;82.57;97630.77;226273;1273;24155;-74
2023/12/01 16:34:53;;;;;;;69.30;42.90;;;;;;;0.65;82.87;97620.05;226300;1257;22544;-73
2023/12/01 16:39:56;;;;;;;77.60;44.30;;;;;;;0.67;82.88;97624.21;226245;1275;22546;-73
2023/12/01 16:44:58;;;;;;;80.00;50.00;;;;;;;0.64;82.99;97614.92;226239;1273;22559;-74
2023/12/01 16:50:01;;;;;;;87.40;53.70;;;;;;;0.59;82.94;97624.67;226322;1273;22604;-73
2023/12/01 16:55:08;;;;;;;105.20;59.90;;;;;;;0.54;82.97;97628.32;226309;1275;23086;-72
2023/12/01 17:00:11;;;;;;;86.00;51.80;;;;;;;0.53;83.21;97623.15;226358;1275;22643;-74
2023/12/01 17:05:13;;;;;;;92.80;55.90;;;;;;;0.53;83.49;97617.80;226115;1275;22561;-73
2023/12/01 17:10:16;;;;;;;87.60;53.10;;;;;;;0.53;83.53;97632.67;226332;1275;22589;-72
2023/12/01 17:15:18;;;;;;;81.20;51.20;;;;;;;0.52;83.51;97627.27;226264;1275;22565;-72
2023/12/01 17:20:20;;;;;;;81.90;49.60;;;;;;;0.48;83.63;97616.45;226252;1275;22552;-74
2023/12/01 17:25:23;;;;;;;99.70;58.80;;;;;;;0.44;83.88;97628.48;226328;1272;23698;-75
2023/12/01 17:30:25;;;;;;;100.60;58.70;;;;;;;0.44;84.02;97630.30;226347;1275;22547;-73
2023/12/01 17:35:27;;;;;;;92.30;54.40;;;;;;;0.47;84.17;97639.44;226393;1275;25013;-74
2023/12/01 17:40:29;;;;;;;86.90;50.30;;;;;;;0.46;84.29;97638.77;226393;1272;23489;-77
2023/12/01 17:45:31;;;;;;;91.20;52.70;;;;;;;0.47;84.26;97646.81;226341;1275;24576;-73
2023/12/01 17:50:34;;;;;;;85.30;51.00;;;;;;;0.45;84.17;97641.11;226176;1272;25337;-75
2023/12/01 17:55:36;;;;;;;81.80;45.70;;;;;;;0.43;84.47;97633.20;226382;1275;22551;-73
2023/12/01 18:00:38;;;;;;;84.60;51.00;;;;;;;0.41;84.19;97643.80;226176;1275;22555;-74
2023/12/01 18:05:40;;;;;;;76.60;48.70;;;;;;;0.40;84.26;97649.93;226398;1275;22595;-73
2023/12/01 18:10:42;;;;;;;68.00;42.80;;;;;;;0.40;84.32;97639.09;226415;1273;22608;-73
2023/12/01 18:15:45;;;;;;;70.80;39.80;;;;;;;0.39;84.47;97631.18;226340;1275;22576;-73
2023/12/01 18:20:47;;;;;;;68.80;41.60;;;;;;;0.39;84.28;97632.09;226337;1274;23098;-75
2023/12/01 18:25:49;;;;;;;63.90;39.30;;;;;;;0.38;84.38;97619.84;226181;1275;22539;-73
2023/12/01 18:30:52;;;;;;;56.10;35.10;;;;;;;0.37;84.21;97617.73;226344;1275;22546;-73
2023/12/01 18:35:54;;;;;;;60.70;37.60;;;;;;;0.37;84.74;97635.36;226141;1275;22534;-73
2023/12/01 18:40:57;;;;;;;56.10;32.50;;;;;;;0.36;84.72;97639.24;226290;1275;23205;-74
2023/12/01 18:46:00;;;;;;;57.40;34.10;;;;;;;0.33;84.51;97641.27;226197;1275;22574;-74
2023/12/01 18:51:02;;;;;;;57.80;34.50;;;;;;;0.29;84.78;97650.73;226282;1275;22548;-73
2023/12/01 18:56:09;;;;;;;61.90;36.10;;;;;;;0.25;84.65;97644.34;226244;1270;23100;-72
2023/12/01 19:01:12;;;;;;;53.00;32.30;;;;;;;0.26;84.77;97634.35;226349;1275;22552;-73
2023/12/01 19:06:14;;;;;;;53.90;32.20;;;;;;;0.28;84.70;97629.53;226299;1275;23048;-74
2023/12/01 19:11:17;;;;;;;51.20;31.20;;;;;;;0.28;84.85;97632.95;226406;1275;23202;-73
2023/12/01 19:16:20;;;;;;;51.90;30.70;;;;;;;0.28;84.83;97632.13;226344;1275;22556;-74
2023/12/01 19:21:23;;;;;;;55.10;32.40;;;;;;;0.28;84.77;97641.48;226213;1255;22612;-73
2023/12/01 19:26:28;;;;;;;51.70;31.90;;;;;;;0.30;85.07;97640.66;226341;1272;22690;-75
2023/12/01 19:31:30;;;;;;;52.90;32.40;;;;;;;0.33;84.82;97644.71;226369;1275;22540;-74
2023/12/01 19:36:34;;;;;;;47.80;29.70;;;;;;;0.32;84.96;97662.79;226246;1275;22554;-73
2023/12/01 19:41:36;;;;;;;53.30;34.00;;;;;;;0.29;84.94;97666.28;226298;1275;22536;-74
2023/12/01 19:46:38;;;;;;;55.40;34.00;;;;;;;0.26;85.00;97654.45;226244;1273;24764;-74
2023/12/01 19:51:40;;;;;;;54.50;33.60;;;;;;;0.27;85.22;97642.58;226435;1266;22566;-73
2023/12/01 19:56:42;;;;;;;62.60;37.50;;;;;;;0.26;85.04;97645.13;226301;1270;22542;-74
2023/12/01 20:01:47;;;;;;;58.50;35.00;;;;;;;0.26;85.01;97651.39;226342;1273;22545;-73
2023/12/01 20:06:50;;;;;;;62.30;37.70;;;;;;;0.22;85.15;97655.54;226610;1271;23631;-73
2023/12/01 20:11:54;;;;;;;59.00;35.80;;;;;;;0.23;85.26;97652.04;226439;1272;22680;-73
2023/12/01 20:16:56;;;;;;;56.40;34.90;;;;;;;0.24;85.14;97646.02;226385;1275;22540;-73
2023/12/01 20:21:58;;;;;;;65.80;38.80;;;;;;;0.26;85.27;97643.86;226371;1276;22559;-73
2023/12/01 20:27:00;;;;;;;67.60;38.90;;;;;;;0.25;85.16;97641.91;226082;1276;22566;-72
2023/12/01 20:32:02;;;;;;;65.30;38.40;;;;;;;0.24;85.28;97628.00;226369;1273;22568;-72
2023/12/01 20:37:05;;;;;;;66.00;38.50;;;;;;;0.22;85.27;97626.48;226066;1275;22538;-72
2023/12/01 20:42:12;;;;;;;63.80;36.90;;;;;;;0.21;85.22;97635.70;226159;1275;23032;-77
2023/12/01 20:47:15;;;;;;;68.40;38.80;;;;;;;0.16;85.01;97644.23;226254;1275;23325;-74
2023/12/01 20:52:17;;;;;;;73.40;41.70;;;;;;;0.09;85.12;97642.27;226231;1276;22554;-75
2023/12/01 20:57:19;;;;;;;80.00;42.00;;;;;;;0.04;85.07;97642.31;226117;1276;24216;-75
2023/12/01 21:02:23;;;;;;;70.50;40.10;;;;;;;-0.01;85.09;97648.46;226227;1273;22591;-74
2023/12/01 21:07:27;;;;;;;75.10;43.10;;;;;;;-0.05;85.08;97640.38;226274;1275;24260;-73
2023/12/01 21:12:30;;;;;;;73.10;42.40;;;;;;;-0.11;84.96;97616.33;226236;1274;22568;-73
2023/12/01 21:17:32;;;;;;;71.50;39.80;;;;;;;-0.14;85.09;97608.19;226223;1264;22623;-73
2023/12/01 21:22:35;;;;;;;78.90;44.40;;;;;;;-0.19;85.30;97592.65;226309;1275;22540;-72
2023/12/01 21:27:38;;;;;;;73.00;42.30;;;;;;;-0.23;85.25;97601.69;226337;1276;22548;-74
2023/12/01 21:32:40;;;;;;;84.30;47.90;;;;;;;-0.26;85.25;97608.34;226289;1274;22571;-74
2023/12/01 21:37:43;;;;;;;103.50;59.90;;;;;;;-0.32;85.26;97606.20;226258;1270;22574;-73
2023/12/01 21:42:46;;;;;;;93.30;53.20;;;;;;;-0.35;85.51;97598.16;226372;1272;22557;-73
2023/12/01 21:47:48;;;;;;;103.40;58.80;;;;;;;-0.33;85.77;97597.46;226336;1266;22538;-72
2023/12/01 21:52:50;;;;;;;91.20;54.80;;;;;;;-0.30;85.66;97597.72;226205;1274;22547;-73
2023/12/01 21:57:55;;;;;;;96.20;56.20;;;;;;;-0.32;85.66;97591.84;226209;1275;22558;-73
2023/12/01 22:02:59;;;;;;;92.20;51.70;;;;;;;-0.40;85.41;97587.02;226481;1274;22548;-73
2023/12/01 22:08:01;;;;;;;98.60;58.20;;;;;;;-0.41;85.62;97578.86;226533;1275;22535;-73
2023/12/01 22:13:04;;;;;;;99.00;54.00;;;;;;;-0.44;85.43;97593.14;226308;1273;22731;-73
2023/12/01 22:18:06;;;;;;;90.20;50.30;;;;;;;-0.44;85.73;97603.72;226312;1275;22552;-74
2023/12/01 22:23:08;;;;;;;98.00;56.40;;;;;;;-0.44;85.67;97599.75;226306;1275;24257;-74
2023/12/01 22:28:11;;;;;;;93.30;56.20;;;;;;;-0.45;85.69;97602.07;226290;1269;22546;-75
2023/12/01 22:33:13;;;;;;;95.90;56.10;;;;;;;-0.47;85.52;97633.23;226229;1275;24279;-73
2023/12/01 22:38:15;;;;;;;96.30;56.80;;;;;;;-0.46;85.81;97653.91;226288;1275;23471;-74
2023/12/01 22:43:17;;;;;;;95.40;49.60;;;;;;;-0.43;86.12;97648.20;226190;1275;22592;-73
2023/12/01 22:48:19;;;;;;;102.10;60.30;;;;;;;-0.44;85.63;97653.80;226288;1275;22530;-74
2023/12/01 22:53:22;;;;;;;95.60;55.20;;;;;;;-0.44;85.90;97642.11;226353;1273;22528;-73
2023/12/01 22:58:24;;;;;;;102.90;57.80;;;;;;;-0.48;85.63;97632.15;226334;1275;22557;-73